createdAt,value
2018-11-04T00:00:21.418Z,1024.6
2018-11-04T00:05:20.092Z,1024.5
2018-11-04T00:10:20.529Z,1024.5
2018-11-04T00:15:20.129Z,1024.4
2018-11-04T00:20:20.936Z,1024.4
2018-11-04T00:25:20.976Z,1024.4
2018-11-04T00:30:20.155Z,1024.4
2018-11-04T00:35:20.450Z,1024.4
2018-11-04T00:40:21.261Z,1024.2
2018-11-04T00:45:21.381Z,1024.3
2018-11-04T00:50:20.724Z,1024.1
2018-11-04T00:55:20.207Z,1024.1
2018-11-04T01:00:20.562Z,1024.2
2018-11-04T01:05:20.739Z,1024.1
2018-11-04T01:10:20.177Z,1024
2018-11-04T01:15:20.738Z,1023.9
2018-11-04T01:20:20.002Z,1023.8
2018-11-04T01:25:25.917Z,1023.8
2018-11-04T01:30:21.630Z,1023.7
2018-11-04T01:35:20.200Z,1023.6
2018-11-04T01:40:20.458Z,1023.5
2018-11-04T01:45:20.045Z,1023.4
2018-11-04T01:50:25.787Z,1023.4
2018-11-04T01:55:20.869Z,1023.4
2018-11-04T02:00:20.101Z,1023.3
2018-11-04T02:05:20.375Z,1023.3
2018-11-04T02:10:20.859Z,1023.1
2018-11-04T02:15:20.530Z,1023.1
2018-11-04T02:20:20.673Z,1023
2018-11-04T02:25:20.137Z,1022.9
2018-11-04T02:30:20.376Z,1022.8
2018-11-04T02:35:20.720Z,1022.7
2018-11-04T02:40:20.108Z,1022.7
2018-11-04T02:45:20.729Z,1022.6
2018-11-04T02:50:20.336Z,1022.6
2018-11-04T02:55:20.513Z,1022.5
2018-11-04T03:00:20.771Z,1022.4
2018-11-04T03:05:20.013Z,1022.3
2018-11-04T03:10:20.515Z,1022.3
2018-11-04T03:15:20.099Z,1022.2
2018-11-04T03:20:20.361Z,1022.1
2018-11-04T03:25:20.834Z,1022.1
2018-11-04T03:30:20.119Z,1022.1
2018-11-04T03:35:20.367Z,1022
2018-11-04T03:40:20.777Z,1022
2018-11-04T03:45:20.364Z,1022.1
2018-11-04T03:50:20.638Z,1022
2018-11-04T03:55:20.154Z,1022
2018-11-04T04:00:20.337Z,1022.1
2018-11-04T04:05:20.662Z,1022.1
2018-11-04T04:10:20.152Z,1022.1
2018-11-04T04:15:20.735Z,1022
2018-11-04T04:20:20.037Z,1021.9
2018-11-04T04:25:20.508Z,1021.8
2018-11-04T04:30:20.693Z,1021.9
2018-11-04T04:35:19.986Z,1021.9
2018-11-04T04:40:20.451Z,1021.8
2018-11-04T04:45:20.065Z,1021.7
2018-11-04T04:50:20.358Z,1021.7
2018-11-04T04:55:20.873Z,1021.6
2018-11-04T05:00:20.058Z,1021.5
2018-11-04T05:05:20.367Z,1021.5
2018-11-04T05:10:20.813Z,1021.5
2018-11-04T05:15:20.410Z,1021.5
2018-11-04T05:20:20.698Z,1021.4
2018-11-04T05:25:20.147Z,1021.4
2018-11-04T05:30:20.416Z,1021.5
2018-11-04T05:35:20.672Z,1021.4
2018-11-04T05:40:20.146Z,1021.4
2018-11-04T05:45:20.753Z,1021.4
2018-11-04T05:50:20.021Z,1021.4
2018-11-04T05:55:20.522Z,1021.4
2018-11-04T06:00:20.751Z,1021.3
2018-11-04T06:05:20.050Z,1021.3
2018-11-04T06:10:20.487Z,1021.3
2018-11-04T06:15:20.086Z,1021.3
2018-11-04T06:20:20.369Z,1021.3
2018-11-04T06:25:20.803Z,1021.2
2018-11-04T06:30:20.038Z,1021.3
2018-11-04T06:35:20.330Z,1021.3
2018-11-04T06:40:20.783Z,1021.2
2018-11-04T06:45:20.422Z,1021.2
2018-11-04T06:50:20.681Z,1021.3
2018-11-04T06:55:20.192Z,1021.2
2018-11-04T07:00:20.404Z,1021.3
2018-11-04T07:05:20.737Z,1021.3
2018-11-04T07:10:20.210Z,1021.3
2018-11-04T07:15:20.781Z,1021.2
2018-11-04T07:20:20.089Z,1021.2
2018-11-04T07:25:20.592Z,1021.2
2018-11-04T07:30:20.772Z,1021.2
2018-11-04T07:35:21.414Z,1021.2
2018-11-04T07:40:20.532Z,1021.2
2018-11-04T07:45:20.101Z,1021.1
2018-11-04T07:50:20.385Z,1021.1
2018-11-04T07:55:20.874Z,1021.1
2018-11-04T08:00:20.084Z,1020.9
2018-11-04T08:05:25.388Z,1020.8
2018-11-04T08:10:20.877Z,1020.8
2018-11-04T08:15:20.470Z,1020.8
2018-11-04T08:20:20.746Z,1020.6
2018-11-04T08:25:20.843Z,1020.6
2018-11-04T08:30:20.471Z,1020.6
2018-11-04T08:35:20.745Z,1020.6
2018-11-04T08:40:20.962Z,1020.5
2018-11-04T08:45:24.821Z,1020.5
2018-11-04T08:50:20.128Z,1020.5
2018-11-04T08:55:20.687Z,1020.5
2018-11-04T09:00:19.887Z,1020.4
2018-11-04T09:05:20.186Z,1020.4
2018-11-04T09:10:20.697Z,1020.4
2018-11-04T09:15:20.279Z,1020.3
2018-11-04T09:20:20.549Z,1020.2
2018-11-04T09:25:20.025Z,1020.2
2018-11-04T09:30:20.226Z,1020
2018-11-04T09:35:21.663Z,1020
2018-11-04T09:40:20.005Z,1020
2018-11-04T09:45:20.598Z,1020
2018-11-04T09:50:19.863Z,1020
2018-11-04T09:55:20.369Z,1020.1
2018-11-04T10:00:20.536Z,1020
2018-11-04T10:05:24.857Z,1020.2
2018-11-04T10:10:20.316Z,1020.2
2018-11-04T10:15:19.933Z,1020.2
2018-11-04T10:20:22.574Z,1020
2018-11-04T10:25:20.694Z,1020
2018-11-04T10:30:20.740Z,1019.9
2018-11-04T10:35:20.201Z,1019.9
2018-11-04T10:40:20.695Z,1019.9
2018-11-04T10:45:20.315Z,1019.9
2018-11-04T10:50:20.548Z,1019.8
2018-11-04T10:55:20.108Z,1019.6
2018-11-04T11:00:20.295Z,1019.5
2018-11-04T11:05:20.571Z,1019.5
2018-11-04T11:10:20.070Z,1019.4
2018-11-04T11:15:20.720Z,1019.4
2018-11-04T11:20:19.980Z,1019.3
2018-11-04T11:25:20.473Z,1019.1
2018-11-04T11:30:21.497Z,1019
2018-11-04T11:35:20.029Z,1018.9
2018-11-04T11:40:20.526Z,1018.8
2018-11-04T11:45:20.071Z,1018.8
2018-11-04T11:50:20.329Z,1018.7
2018-11-04T11:55:20.845Z,1018.7
2018-11-04T12:00:20.045Z,1018.5
2018-11-04T12:05:20.527Z,1018.5
2018-11-04T12:10:20.818Z,1018.4
2018-11-04T12:15:20.467Z,1018.3
2018-11-04T12:20:20.725Z,1018.3
2018-11-04T12:25:20.216Z,1018.2
2018-11-04T12:30:20.394Z,1018.2
2018-11-04T12:35:21.630Z,1018.2
2018-11-04T12:40:20.148Z,1018.2
2018-11-04T12:45:20.799Z,1018.2
2018-11-04T12:50:20.060Z,1017.9
2018-11-04T12:55:20.534Z,1017.9
2018-11-04T13:00:20.763Z,1017.8
2018-11-04T13:05:20.046Z,1017.8
2018-11-04T13:10:21.525Z,1017.6
2018-11-04T13:15:20.447Z,1017.5
2018-11-04T13:20:20.376Z,1017.5
2018-11-04T13:25:20.832Z,1017.5
2018-11-04T13:30:20.025Z,1017.3
2018-11-04T13:35:20.300Z,1017.3
2018-11-04T13:40:20.822Z,1017.2
2018-11-04T13:45:20.438Z,1017.2
2018-11-04T13:50:20.785Z,1017.1
2018-11-04T13:55:20.219Z,1016.9
2018-11-04T14:00:20.417Z,1016.9
2018-11-04T14:05:20.703Z,1016.8
2018-11-04T14:10:20.174Z,1016.8
2018-11-04T14:15:20.758Z,1016.7
2018-11-04T14:20:20.034Z,1016.6
2018-11-04T14:25:20.508Z,1016.6
2018-11-04T14:30:20.750Z,1016.6
2018-11-04T14:35:20.066Z,1016.5
2018-11-04T14:40:20.465Z,1016.4
2018-11-04T14:45:20.064Z,1016.4
2018-11-04T14:50:20.581Z,1016.3
2018-11-04T14:55:19.864Z,1016.4
2018-11-04T15:00:20.101Z,1016.3
2018-11-04T15:05:20.331Z,1016.4
2018-11-04T15:10:20.805Z,1016.4
2018-11-04T15:15:20.420Z,1016.3
2018-11-04T15:20:20.715Z,1016.3
2018-11-04T15:25:20.196Z,1016.3
2018-11-04T15:30:20.409Z,1016.3
2018-11-04T15:35:20.781Z,1016.4
2018-11-04T15:40:20.461Z,1016.4
2018-11-04T15:45:20.742Z,1016.4
2018-11-04T15:50:20.002Z,1016.3
2018-11-04T15:55:20.498Z,1016.3
2018-11-04T16:00:20.722Z,1016.3
2018-11-04T16:05:20.543Z,1016.4
2018-11-04T16:10:20.882Z,1016.4
2018-11-04T16:15:20.070Z,1016.4
2018-11-04T16:20:20.385Z,1016.3
2018-11-04T16:25:20.128Z,1016.3
2018-11-04T16:30:20.061Z,1016.2
2018-11-04T16:40:20.779Z,1016.2
2018-11-04T16:45:20.414Z,1016.2
2018-11-04T16:50:20.724Z,1016.3
2018-11-04T16:55:20.201Z,1016.3
2018-11-04T17:00:19.896Z,1016.2
2018-11-04T17:05:21.895Z,1016.3
2018-11-04T17:10:20.616Z,1016.4
2018-11-04T17:15:20.206Z,1016.4
2018-11-04T17:20:20.446Z,1016.4
2018-11-04T17:25:20.269Z,1016.3
2018-11-04T17:30:20.483Z,1016.2
2018-11-04T17:35:19.874Z,1016.2
2018-11-04T17:40:20.228Z,1016.2
2018-11-04T17:45:20.128Z,1016.2
2018-11-04T17:50:20.072Z,1016.1
2018-11-04T17:55:20.540Z,1016.2
2018-11-04T18:00:20.407Z,1016.3
2018-11-04T18:05:20.060Z,1016.2
2018-11-04T18:10:20.568Z,1016.1
2018-11-04T18:15:20.131Z,1016.1
2018-11-04T18:20:20.356Z,1016
2018-11-04T18:25:19.858Z,1015.9
2018-11-04T18:30:20.357Z,1015.9
2018-11-04T18:35:20.358Z,1015.9
2018-11-04T18:40:19.833Z,1015.9
2018-11-04T18:45:20.454Z,1015.9
2018-11-04T18:50:21.057Z,1015.9
2018-11-04T18:55:20.237Z,1015.9
2018-11-04T19:00:20.438Z,1015.8
2018-11-04T19:05:21.088Z,1015.8
2018-11-04T19:10:20.224Z,1015.8
2018-11-04T19:15:19.730Z,1015.8
2018-11-04T19:20:20.001Z,1015.8
2018-11-04T19:25:20.498Z,1015.8
2018-11-04T19:30:20.668Z,1015.6
2018-11-04T19:35:19.970Z,1015.6
2018-11-04T19:40:20.402Z,1015.6
2018-11-04T19:45:19.980Z,1015.5
2018-11-04T19:50:20.339Z,1015.6
2018-11-04T19:55:20.795Z,1015.6
2018-11-04T20:00:20.091Z,1015.6
2018-11-04T20:05:21.254Z,1015.6
2018-11-04T20:10:20.814Z,1015.6
2018-11-04T20:15:20.354Z,1015.6
2018-11-04T20:20:22.245Z,1015.5
2018-11-04T20:25:20.195Z,1015.5
2018-11-04T20:30:20.491Z,1015.4
2018-11-04T20:35:20.879Z,1015.6
2018-11-04T20:40:20.102Z,1015.6
2018-11-04T20:45:20.323Z,1015.6
2018-11-04T20:50:20.062Z,1015.6
2018-11-04T20:55:20.700Z,1015.5
2018-11-04T21:00:19.929Z,1015.5
2018-11-04T21:05:20.107Z,1015.5
2018-11-04T21:10:20.523Z,1015.4
2018-11-04T21:15:20.150Z,1015.4
2018-11-04T21:20:20.454Z,1015.3
2018-11-04T21:25:20.918Z,1015.2
2018-11-04T21:30:20.103Z,1015.1
2018-11-04T21:35:20.415Z,1015.1
2018-11-04T21:40:20.011Z,1015.2
2018-11-04T21:45:20.507Z,1015.2
2018-11-04T21:50:19.773Z,1015.2
2018-11-04T21:55:21.607Z,1015.1
2018-11-04T22:00:20.789Z,1015
2018-11-04T22:05:19.730Z,1015
2018-11-04T22:10:20.549Z,1015
2018-11-04T22:15:19.832Z,1015
2018-11-04T22:20:20.064Z,1015
2018-11-04T22:25:20.535Z,1014.6
2018-11-04T22:30:19.891Z,1014.7
2018-11-04T22:35:20.064Z,1014.8
2018-11-04T22:40:20.486Z,1014.5
2018-11-04T22:45:20.172Z,1014.5
2018-11-04T22:50:20.874Z,1014.6
2018-11-04T22:55:19.953Z,1014.5
2018-11-04T23:00:20.248Z,1014.5
2018-11-04T23:05:20.428Z,1014.6
2018-11-04T23:10:19.967Z,1014.7
2018-11-04T23:15:20.613Z,1014.7
2018-11-04T23:20:19.827Z,1014.6
2018-11-04T23:25:20.252Z,1014.6
2018-11-04T23:30:20.514Z,1014.6
2018-11-04T23:35:19.741Z,1014.5
2018-11-04T23:40:20.162Z,1014.6
2018-11-04T23:45:19.783Z,1014.6
2018-11-04T23:50:20.053Z,1014.6
2018-11-04T23:55:20.558Z,1014.5
